createdAt,value
2022-11-20T00:04:28.312Z,40.87
2022-11-20T00:09:31.084Z,41.03
2022-11-20T00:14:35.176Z,33.07
2022-11-20T00:19:37.929Z,39.17
2022-11-20T00:24:43.128Z,38.67
2022-11-20T00:29:47.488Z,36.03
2022-11-20T00:34:50.302Z,38.93
2022-11-20T00:39:53.057Z,32.33
2022-11-20T00:44:57.105Z,32.83
2022-11-20T00:49:59.878Z,39.53
2022-11-20T00:55:02.613Z,35.23
2022-11-20T01:00:08.417Z,34.07
2022-11-20T01:05:11.171Z,38.07
2022-11-20T01:10:13.971Z,32.53
2022-11-20T01:15:18.280Z,34.47
2022-11-20T01:20:21.076Z,35.80
2022-11-20T01:25:23.804Z,40.93
2022-11-20T01:30:27.945Z,38.27
2022-11-20T01:35:30.741Z,38.53
2022-11-20T01:40:33.463Z,36.67
2022-11-20T01:45:59.707Z,37.20
2022-11-20T01:51:04.145Z,34.37
2022-11-20T01:56:11.976Z,33.17
2022-11-20T02:01:16.632Z,37.03
2022-11-20T02:06:24.826Z,37.13
2022-11-20T02:11:27.557Z,32.63
2022-11-20T02:16:36.324Z,31.70
2022-11-20T02:21:45.072Z,32.73
2022-11-20T02:26:53.567Z,35.20
2022-11-20T02:31:58.690Z,33.70
2022-11-20T02:37:02.025Z,32.97
2022-11-20T02:42:06.335Z,33.03
2022-11-20T02:47:09.381Z,36.27
2022-11-20T02:52:12.206Z,32.60
2022-11-20T02:57:16.317Z,29.70
2022-11-20T03:02:19.103Z,29.47
2022-11-20T03:07:21.902Z,31.33
2022-11-20T03:12:26.015Z,35.27
2022-11-20T03:17:30.322Z,35.23
2022-11-20T03:22:33.376Z,35.57
2022-11-20T03:27:37.493Z,38.23
2022-11-20T03:32:40.692Z,37.20
2022-11-20T03:37:43.458Z,37.27
2022-11-20T03:42:47.565Z,35.53
2022-11-20T03:47:50.448Z,33.73
2022-11-20T03:52:53.221Z,29.17
2022-11-20T03:58:00.414Z,30.10
2022-11-20T04:03:04.415Z,30.37
2022-11-20T04:08:07.607Z,26.43
2022-11-20T04:13:11.693Z,26.07
2022-11-20T04:18:14.404Z,26.37
2022-11-20T04:23:17.155Z,24.20
2022-11-20T04:28:21.448Z,28.40
2022-11-20T04:33:27.052Z,28.13
2022-11-20T04:38:30.777Z,24.07
2022-11-20T04:43:35.691Z,29.20
2022-11-20T04:48:38.414Z,24.90
2022-11-20T04:53:41.371Z,26.73
2022-11-20T04:58:45.527Z,25.63
2022-11-20T05:03:48.554Z,26.90
2022-11-20T05:08:51.587Z,25.50
2022-11-20T05:13:55.687Z,26.53
2022-11-20T05:19:06.358Z,30.87
2022-11-20T05:24:09.366Z,28.87
2022-11-20T05:29:16.130Z,32.80
2022-11-20T05:34:18.919Z,28.53
2022-11-20T05:39:21.927Z,34.10
2022-11-20T05:44:26.168Z,27.43
2022-11-20T05:49:28.960Z,34.50
2022-11-20T05:54:31.692Z,35.67
2022-11-20T05:59:35.816Z,28.00
2022-11-20T06:04:38.561Z,30.47
2022-11-20T06:09:41.889Z,28.30
2022-11-20T06:14:45.994Z,29.20
2022-11-20T06:19:48.793Z,26.90
2022-11-20T06:24:51.823Z,30.37
2022-11-20T06:29:55.867Z,35.23
2022-11-20T06:34:58.681Z,32.00
2022-11-20T06:40:01.449Z,28.90
2022-11-20T06:45:06.198Z,29.47
2022-11-20T06:50:09.613Z,33.23
2022-11-20T06:55:12.372Z,38.90
2022-11-20T07:00:17.700Z,36.20
2022-11-20T07:05:20.606Z,30.33
2022-11-20T07:10:23.350Z,29.83
2022-11-20T07:15:27.635Z,28.63
2022-11-20T07:20:30.756Z,34.13
2022-11-20T07:25:33.872Z,32.43
2022-11-20T07:30:38.112Z,27.67
2022-11-20T07:35:40.815Z,26.83
2022-11-20T07:40:44.732Z,35.80
2022-11-20T07:45:48.783Z,29.83
2022-11-20T07:50:51.461Z,29.63
2022-11-20T07:55:54.289Z,31.67
2022-11-20T08:00:58.584Z,31.67
2022-11-20T08:06:01.909Z,31.10
2022-11-20T08:11:22.328Z,32.37
2022-11-20T08:16:26.434Z,33.00
2022-11-20T08:21:31.729Z,32.77
2022-11-20T08:26:39.073Z,28.67
2022-11-20T08:31:43.216Z,29.93
2022-11-20T08:36:45.936Z,29.67
2022-11-20T08:41:48.661Z,31.23
2022-11-20T08:46:52.711Z,28.52
2022-11-20T08:51:56.203Z,28.67
2022-11-20T08:56:58.991Z,27.55
2022-11-20T09:02:03.121Z,26.65
2022-11-20T09:07:06.062Z,25.63
2022-11-20T09:12:08.905Z,25.73
2022-11-20T09:17:14.384Z,23.98
2022-11-20T09:22:17.102Z,23.63
2022-11-20T09:27:22.398Z,25.55
2022-11-20T09:32:26.510Z,20.25
2022-11-20T09:37:29.430Z,24.23
2022-11-20T09:42:40.700Z,20.42
2022-11-20T09:47:56.108Z,16.08
2022-11-20T09:53:13.164Z,19.77
2022-11-20T09:58:31.134Z,17.17
2022-11-20T10:03:46.780Z,17.20
2022-11-20T10:08:56.403Z,17.88
2022-11-20T10:14:13.659Z,15.10
2022-11-20T10:19:33.229Z,15.73
2022-11-20T10:24:53.810Z,13.98
2022-11-20T10:30:03.095Z,17.05
2022-11-20T10:35:18.072Z,15.65
2022-11-20T10:40:29.223Z,13.90
2022-11-20T10:45:56.305Z,13.57
2022-11-20T10:51:14.961Z,12.20
2022-11-20T10:56:22.893Z,12.65
2022-11-20T11:01:27.559Z,15.07
2022-11-20T11:06:38.780Z,18.73
2022-11-20T11:11:41.542Z,14.63
2022-11-20T11:16:52.055Z,13.57
2022-11-20T11:21:59.121Z,14.60
2022-11-20T11:27:05.364Z,13.20
2022-11-20T11:32:10.219Z,15.87
2022-11-20T11:37:19.556Z,17.47
2022-11-20T11:42:22.735Z,16.47
2022-11-20T11:47:27.683Z,12.93
2022-11-20T11:52:37.242Z,13.60
2022-11-20T11:57:48.570Z,12.45
2022-11-20T12:02:59.251Z,11.00
2022-11-20T12:08:12.312Z,8.73
2022-11-20T12:13:27.849Z,6.90
2022-11-20T12:18:34.553Z,8.80
2022-11-20T12:23:47.780Z,9.00
2022-11-20T12:29:01.645Z,9.38
2022-11-20T12:34:34.110Z,14.52
2022-11-20T12:39:43.340Z,11.43
2022-11-20T12:45:12.835Z,12.47
2022-11-20T12:50:24.794Z,12.30
2022-11-20T12:55:40.928Z,11.80
2022-11-20T13:00:56.789Z,14.07
2022-11-20T13:06:07.382Z,12.97
2022-11-20T13:11:20.211Z,13.13
2022-11-20T13:16:29.824Z,12.57
2022-11-20T13:21:39.633Z,12.47
2022-11-20T13:26:43.763Z,11.67
2022-11-20T13:31:47.820Z,12.80
2022-11-20T13:36:52.439Z,13.83
2022-11-20T13:42:01.194Z,16.60
2022-11-20T13:47:04.019Z,11.53
2022-11-20T13:52:29.696Z,9.90
2022-11-20T13:57:55.199Z,9.67
2022-11-20T14:03:09.397Z,10.93
2022-11-20T14:08:25.197Z,11.67
2022-11-20T14:13:29.289Z,9.83
2022-11-20T14:18:32.048Z,11.63
2022-11-20T14:23:34.843Z,12.13
2022-11-20T14:28:39.006Z,10.23
2022-11-20T14:33:41.788Z,11.20
2022-11-20T14:38:44.612Z,11.77
2022-11-20T14:43:54.017Z,10.80
2022-11-20T14:48:58.789Z,11.87
2022-11-20T14:54:16.179Z,14.57
2022-11-20T14:59:25.461Z,11.57
2022-11-20T15:04:31.057Z,11.83
2022-11-20T15:09:34.572Z,13.17
2022-11-20T15:14:38.877Z,14.47
2022-11-20T15:19:41.706Z,13.93
2022-11-20T15:24:44.482Z,12.30
2022-11-20T15:29:48.602Z,15.53
2022-11-20T15:34:51.341Z,18.83
2022-11-20T15:39:54.185Z,22.13
2022-11-20T15:44:58.267Z,20.20
2022-11-20T15:50:01.168Z,24.23
2022-11-20T15:55:09.709Z,21.17
2022-11-20T16:00:19.335Z,20.83
2022-11-20T16:05:29.339Z,21.73
2022-11-20T16:10:32.255Z,25.37
2022-11-20T16:15:48.188Z,27.80
2022-11-20T16:20:55.028Z,24.33
2022-11-20T16:25:57.852Z,29.47
2022-11-20T16:31:10.199Z,28.87
2022-11-20T16:36:14.410Z,26.30
2022-11-20T16:41:17.172Z,30.17
2022-11-20T16:46:23.155Z,27.30
2022-11-20T16:51:26.942Z,24.77
2022-11-20T16:56:29.902Z,29.20
2022-11-20T17:01:35.902Z,26.00
2022-11-20T17:06:41.220Z,30.37
2022-11-20T17:11:44.233Z,31.53
2022-11-20T17:16:48.441Z,31.60
2022-11-20T17:21:51.216Z,27.63
2022-11-20T17:26:54.099Z,30.70
2022-11-20T17:31:58.195Z,27.93
2022-11-20T17:37:01.303Z,27.57
2022-11-20T17:42:21.906Z,30.43
2022-11-20T17:47:26.593Z,28.43
2022-11-20T17:52:29.359Z,36.13
2022-11-20T17:57:49.376Z,34.63
2022-11-20T18:02:53.531Z,29.90
2022-11-20T18:07:56.360Z,36.60
2022-11-20T18:12:59.163Z,33.20
2022-11-20T18:18:03.236Z,29.90
2022-11-20T18:23:05.986Z,31.70
2022-11-20T18:28:08.787Z,34.77
2022-11-20T18:33:12.947Z,30.57
2022-11-20T18:38:15.853Z,39.83
2022-11-20T18:43:35.987Z,36.57
2022-11-20T18:48:40.072Z,39.07
2022-11-20T18:53:47.134Z,35.70
2022-11-20T18:58:50.287Z,35.60
2022-11-20T19:03:54.393Z,33.67
2022-11-20T19:08:57.163Z,36.30
2022-11-20T19:13:59.914Z,36.60
2022-11-20T19:19:06.224Z,33.73
2022-11-20T19:24:09.859Z,31.97
2022-11-20T19:29:15.349Z,35.87
2022-11-20T19:34:19.423Z,47.77
2022-11-20T19:39:23.009Z,38.63
2022-11-20T19:44:26.193Z,38.57
2022-11-20T19:49:30.300Z,35.03
2022-11-20T19:54:33.058Z,39.53
2022-11-20T19:59:35.873Z,41.00
2022-11-20T20:04:39.891Z,42.80
2022-11-20T20:09:42.603Z,35.40
2022-11-20T20:14:45.413Z,32.80
2022-11-20T20:19:49.471Z,33.60
2022-11-20T20:24:52.838Z,35.13
2022-11-20T20:29:55.570Z,30.73
2022-11-20T20:35:00.024Z,35.90
2022-11-20T20:40:02.913Z,32.73
2022-11-20T20:45:10.973Z,50.43
2022-11-20T20:50:15.157Z,38.13
2022-11-20T20:55:18.091Z,37.10
2022-11-20T21:00:21.065Z,35.63
2022-11-20T21:05:25.153Z,31.33
2022-11-20T21:10:28.342Z,33.57
2022-11-20T21:15:31.113Z,32.77
2022-11-20T21:20:52.769Z,34.63
2022-11-20T21:25:55.788Z,36.47
2022-11-20T21:31:05.573Z,34.00
2022-11-20T21:36:10.557Z,37.50
2022-11-20T21:41:15.123Z,40.77
2022-11-20T21:46:18.420Z,33.57
2022-11-20T21:51:24.542Z,35.90
2022-11-20T21:56:28.168Z,35.97
2022-11-20T22:01:32.076Z,32.87
2022-11-20T22:06:39.089Z,36.97
2022-11-20T22:11:41.836Z,36.33
2022-11-20T22:16:44.631Z,33.23
2022-11-20T22:21:49.309Z,36.87
2022-11-20T22:26:52.069Z,32.30
2022-11-20T22:31:54.880Z,33.73
2022-11-20T22:37:04.022Z,33.37
2022-11-20T22:42:17.512Z,36.43
2022-11-20T22:47:22.312Z,41.80
2022-11-20T22:52:30.604Z,39.83
2022-11-20T23:04:11.523Z,41.90
2022-11-20T23:09:28.269Z,43.77
2022-11-20T23:14:36.505Z,49.93
2022-11-20T23:19:42.260Z,46.97
2022-11-20T23:24:48.047Z,56.93
2022-11-20T23:29:55.464Z,56.87
2022-11-20T23:34:58.625Z,59.50
2022-11-20T23:40:03.196Z,62.83
2022-11-20T23:45:08.048Z,64.13
2022-11-20T23:50:13.364Z,56.83
2022-11-20T23:55:22.485Z,60.40
